createdAt,value
2019-01-16T00:00:32.869Z,6.60
2019-01-16T00:03:08.957Z,7.40
2019-01-16T00:05:45.229Z,7.13
2019-01-16T00:08:21.236Z,6.60
2019-01-16T00:10:51.579Z,6.90
2019-01-16T00:13:22.014Z,6.87
2019-01-16T00:16:10.209Z,6.50
2019-01-16T00:18:52.561Z,6.90
2019-01-16T00:21:25.450Z,6.97
2019-01-16T00:24:01.874Z,6.40
2019-01-16T00:26:48.487Z,6.80
2019-01-16T00:29:21.274Z,6.93
2019-01-16T00:31:51.606Z,7.27
2019-01-16T00:34:37.956Z,7.13
2019-01-16T00:37:16.888Z,7.70
2019-01-16T00:39:56.728Z,7.87
2019-01-16T00:42:41.753Z,7.30
2019-01-16T00:45:15.102Z,8.00
2019-01-16T00:48:03.585Z,8.47
2019-01-16T00:50:33.950Z,8.77
2019-01-16T00:53:10.024Z,7.93
2019-01-16T00:55:40.144Z,8.00
2019-01-16T00:58:13.485Z,7.97
2019-01-16T01:00:48.179Z,8.50
2019-01-16T01:03:24.512Z,7.30
2019-01-16T01:05:54.995Z,7.27
2019-01-16T01:08:37.847Z,8.00
2019-01-16T01:11:24.661Z,7.70
2019-01-16T01:13:54.779Z,8.03
2019-01-16T01:16:27.538Z,8.53
2019-01-16T01:18:57.957Z,8.00
2019-01-16T01:21:28.277Z,8.30
2019-01-16T01:24:00.772Z,7.60
2019-01-16T01:26:39.988Z,7.87
2019-01-16T01:29:10.061Z,7.20
2019-01-16T01:31:49.623Z,7.23
2019-01-16T01:34:21.516Z,7.17
2019-01-16T01:36:55.407Z,7.40
2019-01-16T01:39:40.542Z,7.67
2019-01-16T01:42:13.879Z,7.30
2019-01-16T01:44:53.125Z,6.80
2019-01-16T01:47:32.429Z,6.40
2019-01-16T01:50:19.022Z,6.50
2019-01-16T01:52:54.967Z,6.40
2019-01-16T01:55:30.891Z,6.63
2019-01-16T01:58:17.644Z,6.73
2019-01-16T02:00:50.698Z,6.30
2019-01-16T02:03:21.066Z,6.30
2019-01-16T02:05:51.138Z,6.13
2019-01-16T02:08:27.383Z,6.80
2019-01-16T02:11:06.343Z,5.47
2019-01-16T02:13:45.341Z,6.60
2019-01-16T02:16:15.374Z,5.80
2019-01-16T02:18:48.410Z,6.93
2019-01-16T02:21:21.462Z,5.97
2019-01-16T02:23:54.119Z,6.03
2019-01-16T02:26:24.503Z,5.87
2019-01-16T02:29:09.569Z,6.30
2019-01-16T02:31:45.173Z,6.83
2019-01-16T02:34:17.973Z,6.27
2019-01-16T02:37:00.715Z,5.70
2019-01-16T02:39:30.760Z,6.40
2019-01-16T02:42:16.433Z,6.43
2019-01-16T02:44:49.173Z,5.80
2019-01-16T02:47:28.235Z,6.47
2019-01-16T02:50:03.981Z,6.20
2019-01-16T02:52:40.089Z,5.90
2019-01-16T02:55:19.125Z,5.03
2019-01-16T02:58:05.679Z,6.10
2019-01-16T03:00:47.913Z,6.20
2019-01-16T03:03:24.102Z,5.70
2019-01-16T03:06:06.458Z,6.07
2019-01-16T03:08:42.652Z,5.53
2019-01-16T03:11:15.829Z,5.60
2019-01-16T03:13:52.031Z,5.40
2019-01-16T03:16:22.370Z,6.00
2019-01-16T03:19:04.498Z,5.90
2019-01-16T03:21:39.506Z,6.00
2019-01-16T03:24:09.548Z,5.40
2019-01-16T03:26:42.594Z,7.13
2019-01-16T03:29:29.426Z,6.77
2019-01-16T03:32:02.375Z,6.13
2019-01-16T03:34:41.469Z,6.63
2019-01-16T03:37:20.477Z,6.83
2019-01-16T03:39:53.254Z,7.13
2019-01-16T03:42:26.254Z,6.97
2019-01-16T03:45:02.393Z,7.07
2019-01-16T03:47:35.478Z,9.90
2019-01-16T03:50:22.133Z,8.07
2019-01-16T03:53:07.594Z,7.83
2019-01-16T03:55:40.508Z,9.00
2019-01-16T03:58:10.847Z,7.73
2019-01-16T04:00:46.568Z,7.57
2019-01-16T04:03:23.118Z,7.60
2019-01-16T04:05:56.532Z,7.33
2019-01-16T04:08:43.387Z,7.57
2019-01-16T04:11:13.469Z,7.87
2019-01-16T04:13:43.785Z,7.10
2019-01-16T04:16:13.835Z,6.83
2019-01-16T04:18:46.907Z,7.83
2019-01-16T04:21:22.474Z,8.30
2019-01-16T04:24:11.270Z,7.27
2019-01-16T04:26:41.604Z,8.70
2019-01-16T04:29:20.929Z,7.53
2019-01-16T04:32:05.281Z,8.83
2019-01-16T04:34:50.669Z,8.30
2019-01-16T04:37:26.742Z,8.07
2019-01-16T04:39:56.813Z,7.67
2019-01-16T04:42:43.064Z,8.00
2019-01-16T04:45:31.359Z,7.50
2019-01-16T04:48:17.922Z,7.37
2019-01-16T04:51:06.577Z,6.80
2019-01-16T04:53:36.917Z,5.70
2019-01-16T04:56:23.735Z,7.27
2019-01-16T04:59:10.481Z,6.40
2019-01-16T05:01:57.000Z,6.43
2019-01-16T05:04:44.050Z,6.77
2019-01-16T05:07:30.837Z,5.90
2019-01-16T05:10:03.774Z,5.90
2019-01-16T05:12:33.815Z,5.80
2019-01-16T05:15:10.270Z,5.67
2019-01-16T05:17:49.601Z,5.87
2019-01-16T05:20:32.001Z,4.80
2019-01-16T05:23:17.625Z,5.30
2019-01-16T05:25:47.749Z,5.60
2019-01-16T05:28:17.888Z,5.97
2019-01-16T05:30:48.217Z,4.70
2019-01-16T05:33:36.553Z,5.90
2019-01-16T05:36:15.656Z,5.60
2019-01-16T05:38:59.010Z,5.30
2019-01-16T05:41:29.331Z,6.73
2019-01-16T05:44:15.061Z,5.47
2019-01-16T05:46:45.365Z,5.27
2019-01-16T05:49:15.679Z,5.90
2019-01-16T05:51:53.200Z,5.40
2019-01-16T05:54:23.667Z,5.37
2019-01-16T05:57:03.377Z,5.40
2019-01-16T05:59:36.357Z,5.17
2019-01-16T06:02:06.493Z,5.07
2019-01-16T06:04:42.608Z,4.93
2019-01-16T06:07:12.948Z,4.80
2019-01-16T06:09:51.842Z,5.37
2019-01-16T06:12:28.393Z,4.50
2019-01-16T06:15:15.145Z,4.60
2019-01-16T06:17:45.232Z,4.13
2019-01-16T06:20:17.148Z,4.50
2019-01-16T06:22:59.604Z,4.37
2019-01-16T06:25:35.145Z,4.53
2019-01-16T06:28:07.972Z,5.20
2019-01-16T06:30:41.255Z,4.13
2019-01-16T06:33:17.186Z,5.33
2019-01-16T06:35:50.262Z,4.00
2019-01-16T06:38:29.783Z,3.90
2019-01-16T06:40:59.835Z,4.43
2019-01-16T06:43:30.144Z,4.00
2019-01-16T06:46:03.294Z,4.40
2019-01-16T06:48:49.609Z,4.43
2019-01-16T06:51:25.420Z,3.83
2019-01-16T06:54:01.526Z,4.20
2019-01-16T06:56:40.871Z,4.40
2019-01-16T06:59:13.688Z,4.47
2019-01-16T07:01:44.137Z,4.23
2019-01-16T07:04:20.442Z,4.00
2019-01-16T07:06:59.904Z,4.47
2019-01-16T07:09:30.283Z,4.23
2019-01-16T07:12:00.679Z,4.17
2019-01-16T07:14:46.168Z,4.03
2019-01-16T07:17:19.381Z,4.20
2019-01-16T07:19:52.203Z,4.37
2019-01-16T07:22:38.660Z,3.60
2019-01-16T07:25:15.235Z,4.10
2019-01-16T07:28:01.697Z,5.17
2019-01-16T07:30:34.716Z,3.93
2019-01-16T07:33:17.345Z,4.07
2019-01-16T07:35:58.998Z,4.60
2019-01-16T07:38:31.719Z,4.60
2019-01-16T07:41:03.412Z,4.30
2019-01-16T07:43:39.680Z,3.97
2019-01-16T07:46:12.389Z,3.60
2019-01-16T07:49:00.831Z,4.20
2019-01-16T07:51:33.906Z,3.73
2019-01-16T07:54:06.860Z,3.80
2019-01-16T07:56:48.899Z,3.70
2019-01-16T07:59:22.112Z,4.53
2019-01-16T08:01:52.542Z,4.53
2019-01-16T08:04:32.068Z,6.07
2019-01-16T08:07:09.271Z,4.50
2019-01-16T08:09:57.752Z,4.30
2019-01-16T08:12:44.510Z,3.67
2019-01-16T08:15:21.129Z,3.40
2019-01-16T08:17:51.549Z,3.97
2019-01-16T08:20:38.084Z,3.80
2019-01-16T08:23:11.717Z,4.30
2019-01-16T08:25:58.689Z,4.10
2019-01-16T08:28:41.025Z,4.00
2019-01-16T08:31:11.473Z,4.67
2019-01-16T08:33:47.878Z,5.37
2019-01-16T08:36:18.271Z,5.13
2019-01-16T08:39:00.494Z,4.90
2019-01-16T08:41:30.814Z,5.90
2019-01-16T08:44:16.553Z,5.37
2019-01-16T08:46:49.623Z,5.40
2019-01-16T08:49:25.495Z,6.17
2019-01-16T08:51:55.632Z,5.47
2019-01-16T08:54:31.530Z,6.80
2019-01-16T08:57:01.833Z,7.10
2019-01-16T08:59:38.359Z,8.33
2019-01-16T09:02:25.316Z,7.50
2019-01-16T09:04:55.456Z,7.93
2019-01-16T09:07:31.640Z,7.87
2019-01-16T09:10:16.750Z,8.63
2019-01-16T09:12:59.040Z,8.07
2019-01-16T09:15:35.006Z,9.23
2019-01-16T09:18:21.006Z,8.53
2019-01-16T09:21:09.666Z,9.33
2019-01-16T09:23:42.963Z,11.20
2019-01-16T09:26:16.082Z,10.20
2019-01-16T09:29:04.420Z,10.10
2019-01-16T09:31:51.161Z,9.90
2019-01-16T09:34:33.193Z,10.80
2019-01-16T09:37:06.024Z,10.00
2019-01-16T09:39:41.830Z,9.80
2019-01-16T09:42:27.423Z,10.77
2019-01-16T09:44:57.734Z,10.20
2019-01-16T09:47:28.864Z,9.93
2019-01-16T09:49:59.006Z,9.80
2019-01-16T09:52:29.461Z,7.63
2019-01-16T09:55:09.106Z,8.30
2019-01-16T09:57:39.453Z,8.27
2019-01-16T10:00:12.839Z,7.77
2019-01-16T10:02:59.113Z,7.23
2019-01-16T10:05:29.171Z,7.30
2019-01-16T10:08:02.432Z,6.37
2019-01-16T10:10:48.783Z,6.10
2019-01-16T10:13:19.159Z,6.30
2019-01-16T10:16:04.468Z,6.50
2019-01-16T10:18:41.251Z,6.43
2019-01-16T10:21:20.745Z,5.80
2019-01-16T10:24:05.921Z,6.57
2019-01-16T10:26:39.100Z,5.10
2019-01-16T10:29:26.559Z,6.43
2019-01-16T10:31:56.974Z,6.30
2019-01-16T10:34:42.541Z,5.80
2019-01-16T10:37:24.795Z,5.63
2019-01-16T10:40:03.721Z,5.93
2019-01-16T10:42:36.485Z,5.80
2019-01-16T10:45:10.866Z,6.57
2019-01-16T10:47:41.254Z,5.53
2019-01-16T10:50:23.306Z,6.10
2019-01-16T10:52:53.622Z,6.60
2019-01-16T10:55:23.727Z,5.23
2019-01-16T10:57:54.073Z,5.80
2019-01-16T11:00:40.857Z,6.17
2019-01-16T11:03:27.378Z,5.67
2019-01-16T11:06:10.091Z,5.60
2019-01-16T11:08:52.522Z,6.17
2019-01-16T11:11:37.918Z,5.63
2019-01-16T11:14:08.113Z,5.80
2019-01-16T11:16:56.669Z,4.93
2019-01-16T11:19:22.770Z,5.37
2019-01-16T11:22:09.447Z,5.00
2019-01-16T11:24:57.745Z,5.10
2019-01-16T11:27:33.779Z,5.57
2019-01-16T11:30:20.612Z,4.30
2019-01-16T11:32:53.738Z,5.87
2019-01-16T11:35:35.391Z,5.33
2019-01-16T11:38:11.004Z,5.90
2019-01-16T11:40:50.942Z,6.20
2019-01-16T11:43:24.091Z,6.20
2019-01-16T11:46:09.216Z,6.10
2019-01-16T11:48:51.088Z,6.50
2019-01-16T11:51:23.921Z,5.60
2019-01-16T11:53:54.310Z,5.77
2019-01-16T11:56:30.036Z,6.07
2019-01-16T11:59:06.335Z,6.10
2019-01-16T12:01:43.000Z,6.50
2019-01-16T12:04:28.164Z,6.90
2019-01-16T12:06:58.237Z,7.70
2019-01-16T12:09:34.639Z,6.00
2019-01-16T12:12:04.950Z,6.10
2019-01-16T12:14:37.977Z,6.17
2019-01-16T12:17:08.043Z,5.90
2019-01-16T12:19:41.177Z,6.10
2019-01-16T12:22:20.603Z,6.27
2019-01-16T12:24:57.127Z,6.57
2019-01-16T12:27:36.262Z,4.80
2019-01-16T12:30:11.798Z,5.60
2019-01-16T12:32:44.891Z,4.70
2019-01-16T12:35:31.393Z,5.03
2019-01-16T12:38:13.967Z,5.13
2019-01-16T12:41:00.466Z,5.13
2019-01-16T12:43:30.863Z,4.70
2019-01-16T12:46:01.204Z,3.87
2019-01-16T12:48:47.711Z,4.37
2019-01-16T12:51:35.817Z,5.20
2019-01-16T12:54:08.394Z,4.80
2019-01-16T12:56:41.372Z,4.60
2019-01-16T12:59:14.799Z,5.57
2019-01-16T13:01:45.652Z,4.97
2019-01-16T13:04:16.157Z,5.07
2019-01-16T13:07:02.725Z,4.47
2019-01-16T13:09:35.489Z,5.10
2019-01-16T13:12:06.065Z,4.93
2019-01-16T13:14:42.259Z,4.40
2019-01-16T13:17:21.690Z,4.27
2019-01-16T13:19:54.770Z,5.50
2019-01-16T13:22:42.644Z,4.80
2019-01-16T13:25:30.079Z,4.70
2019-01-16T13:28:03.434Z,5.33
2019-01-16T13:30:49.142Z,4.87
2019-01-16T13:33:21.974Z,4.47
2019-01-16T13:36:08.033Z,4.33
2019-01-16T13:38:44.150Z,4.53
2019-01-16T13:41:16.637Z,4.10
2019-01-16T13:43:59.030Z,5.40
2019-01-16T13:46:29.441Z,4.43
2019-01-16T13:49:05.232Z,4.83
2019-01-16T13:51:35.322Z,4.50
2019-01-16T13:54:08.235Z,5.30
2019-01-16T13:56:54.984Z,4.77
2019-01-16T13:59:25.421Z,6.90
2019-01-16T14:01:55.604Z,6.00
2019-01-16T14:04:42.167Z,4.90
2019-01-16T14:07:12.501Z,5.13
2019-01-16T14:09:42.823Z,5.20
2019-01-16T14:12:22.339Z,4.90
2019-01-16T14:14:52.553Z,4.80
2019-01-16T14:17:31.781Z,6.30
2019-01-16T14:20:05.926Z,4.87
2019-01-16T14:22:51.348Z,5.47
2019-01-16T14:25:38.225Z,5.80
2019-01-16T14:28:23.982Z,4.40
2019-01-16T14:31:02.887Z,5.10
2019-01-16T14:33:33.314Z,4.60
2019-01-16T14:36:09.917Z,4.93
2019-01-16T14:38:49.156Z,4.83
2019-01-16T14:41:28.295Z,5.00
2019-01-16T14:44:07.173Z,4.60
2019-01-16T14:46:37.393Z,5.17
2019-01-16T14:49:22.492Z,4.60
2019-01-16T14:52:08.267Z,4.67
2019-01-16T14:54:54.932Z,5.50
2019-01-16T14:57:27.821Z,5.60
2019-01-16T15:00:01.780Z,4.77
2019-01-16T15:02:34.826Z,4.67
2019-01-16T15:05:07.927Z,4.73
2019-01-16T15:07:44.142Z,4.80
2019-01-16T15:10:14.536Z,5.40
2019-01-16T15:13:01.150Z,5.40
2019-01-16T15:15:31.578Z,5.20
2019-01-16T15:18:19.621Z,5.50
2019-01-16T15:20:50.112Z,5.77
2019-01-16T15:23:35.210Z,5.70
2019-01-16T15:26:08.438Z,6.67
2019-01-16T15:28:44.449Z,5.20
2019-01-16T15:31:20.823Z,6.00
2019-01-16T15:33:53.791Z,5.67
2019-01-16T15:36:42.410Z,5.90
2019-01-16T15:39:16.043Z,5.30
2019-01-16T15:41:51.915Z,5.40
2019-01-16T15:44:22.241Z,5.20
2019-01-16T15:46:55.784Z,5.87
2019-01-16T15:49:26.108Z,5.77
2019-01-16T15:51:58.804Z,5.77
2019-01-16T15:54:35.056Z,5.50
2019-01-16T15:57:05.513Z,5.33
2019-01-16T15:59:44.609Z,5.87
2019-01-16T16:02:18.130Z,5.50
2019-01-16T16:05:04.167Z,6.10
2019-01-16T16:07:45.890Z,5.80
2019-01-16T16:10:18.713Z,6.10
2019-01-16T16:12:51.931Z,7.00
2019-01-16T16:15:40.382Z,6.20
2019-01-16T16:18:16.357Z,5.97
2019-01-16T16:21:01.902Z,6.20
2019-01-16T16:23:34.936Z,5.43
2019-01-16T16:26:05.359Z,5.30
2019-01-16T16:28:41.467Z,4.83
2019-01-16T16:31:11.853Z,5.17
2019-01-16T16:33:48.532Z,4.70
2019-01-16T16:36:35.217Z,4.90
2019-01-16T16:39:22.631Z,5.10
2019-01-16T16:41:58.443Z,5.33
2019-01-16T16:44:28.856Z,5.20
2019-01-16T16:47:05.391Z,8.90
2019-01-16T16:49:38.946Z,5.80
2019-01-16T16:52:25.876Z,5.50
2019-01-16T16:54:59.625Z,5.00
2019-01-16T16:57:29.748Z,5.77
2019-01-16T17:00:15.104Z,5.07
2019-01-16T17:03:02.224Z,5.47
2019-01-16T17:05:38.574Z,5.57
2019-01-16T17:08:24.009Z,5.20
2019-01-16T17:10:56.808Z,5.07
2019-01-16T17:13:29.683Z,5.23
2019-01-16T17:16:02.530Z,4.70
2019-01-16T17:18:32.611Z,5.40
2019-01-16T17:21:18.073Z,5.43
2019-01-16T17:23:48.391Z,5.10
2019-01-16T17:26:21.624Z,4.67
2019-01-16T17:28:57.472Z,4.90
2019-01-16T17:31:40.026Z,5.00
2019-01-16T17:34:27.129Z,7.87
2019-01-16T17:37:13.627Z,6.30
2019-01-16T17:39:50.739Z,7.50
2019-01-16T17:42:21.161Z,5.23
2019-01-16T17:45:00.767Z,6.30
2019-01-16T17:47:45.557Z,5.87
2019-01-16T17:50:16.915Z,6.03
2019-01-16T17:52:56.029Z,5.27
2019-01-16T17:55:41.519Z,5.50
2019-01-16T17:58:26.915Z,5.30
2019-01-16T18:00:59.673Z,5.07
2019-01-16T18:03:30.103Z,6.20
2019-01-16T18:06:16.374Z,5.57
2019-01-16T18:08:46.769Z,7.67
2019-01-16T18:11:16.930Z,5.30
2019-01-16T18:14:03.611Z,5.47
2019-01-16T18:16:49.035Z,5.80
2019-01-16T18:19:20.694Z,5.50
2019-01-16T18:21:54.036Z,5.20
2019-01-16T18:24:24.439Z,5.60
2019-01-16T18:27:06.985Z,5.77
2019-01-16T18:29:40.347Z,5.40
2019-01-16T18:32:26.598Z,6.63
2019-01-16T18:34:59.683Z,5.70
2019-01-16T18:37:32.831Z,6.47
2019-01-16T18:40:03.171Z,5.13
2019-01-16T18:42:33.491Z,5.40
2019-01-16T18:45:03.832Z,5.80
2019-01-16T18:47:40.471Z,5.80
2019-01-16T18:50:19.771Z,6.30
2019-01-16T18:52:58.700Z,5.43
2019-01-16T18:55:31.338Z,6.67
2019-01-16T18:58:10.380Z,5.83
2019-01-16T19:00:57.200Z,5.60
2019-01-16T19:03:39.671Z,7.20
2019-01-16T19:06:10.085Z,7.83
2019-01-16T19:08:46.206Z,6.23
2019-01-16T19:11:19.443Z,6.07
2019-01-16T19:14:05.997Z,13.07
2019-01-16T19:16:39.067Z,6.90
2019-01-16T19:19:09.522Z,6.10
2019-01-16T19:21:39.846Z,6.50
2019-01-16T19:24:18.949Z,7.47
2019-01-16T19:26:49.291Z,6.50
2019-01-16T19:29:19.463Z,7.73
2019-01-16T19:31:49.571Z,6.57
2019-01-16T19:34:22.399Z,8.30
2019-01-16T19:37:07.718Z,6.83
2019-01-16T19:39:47.001Z,7.13
2019-01-16T19:42:17.150Z,6.20
2019-01-16T19:44:56.168Z,6.70
2019-01-16T19:47:38.663Z,6.63
2019-01-16T19:50:31.261Z,7.20
2019-01-16T19:53:04.849Z,7.27
2019-01-16T19:55:33.833Z,7.60
2019-01-16T19:58:20.520Z,7.83
2019-01-16T20:00:56.531Z,7.17
2019-01-16T20:03:35.676Z,7.20
2019-01-16T20:06:21.406Z,8.20
2019-01-16T20:09:08.361Z,8.40
2019-01-16T20:11:47.903Z,8.03
2019-01-16T20:14:18.246Z,7.87
2019-01-16T20:16:48.664Z,6.50
2019-01-16T20:19:24.599Z,8.37
2019-01-16T20:21:55.052Z,8.17
2019-01-16T20:24:25.409Z,7.30
2019-01-16T20:27:11.876Z,8.27
2019-01-16T20:29:45.132Z,6.37
2019-01-16T20:32:18.672Z,7.60
2019-01-16T20:34:55.264Z,7.03
2019-01-16T20:37:41.099Z,6.80
2019-01-16T20:40:19.186Z,7.27
2019-01-16T20:43:07.597Z,11.30
2019-01-16T20:45:37.831Z,9.07
2019-01-16T20:48:07.970Z,7.60
2019-01-16T20:50:40.939Z,7.43
2019-01-16T20:53:27.858Z,7.90
2019-01-16T20:56:03.965Z,7.47
2019-01-16T20:58:43.668Z,7.57
2019-01-16T21:01:16.782Z,7.40
2019-01-16T21:03:49.985Z,7.20
2019-01-16T21:06:26.329Z,7.33
2019-01-16T21:09:12.599Z,7.80
2019-01-16T21:11:49.047Z,8.67
2019-01-16T21:14:25.120Z,8.03
2019-01-16T21:16:58.476Z,7.83
2019-01-16T21:19:35.084Z,8.30
2019-01-16T21:22:08.407Z,9.63
2019-01-16T21:24:38.773Z,8.43
2019-01-16T21:27:11.823Z,7.40
2019-01-16T21:29:58.239Z,7.60
2019-01-16T21:32:31.643Z,7.90
2019-01-16T21:35:04.880Z,7.27
2019-01-16T21:37:38.139Z,7.03
2019-01-16T21:40:17.167Z,7.13
2019-01-16T21:42:49.931Z,6.83
2019-01-16T21:45:28.814Z,6.20
2019-01-16T21:48:02.304Z,6.50
2019-01-16T21:50:37.856Z,6.13
2019-01-16T21:53:10.667Z,6.50
2019-01-16T21:55:41.106Z,10.67
2019-01-16T21:58:27.832Z,8.53
2019-01-16T22:00:58.214Z,6.70
2019-01-16T22:03:40.142Z,6.17
2019-01-16T22:06:26.657Z,6.20
2019-01-16T22:08:56.789Z,6.20
2019-01-16T22:11:30.090Z,6.10
2019-01-16T22:14:15.359Z,6.23
2019-01-16T22:17:03.492Z,6.60
2019-01-16T22:19:33.885Z,12.13
2019-01-16T22:22:04.251Z,6.70
2019-01-16T22:24:52.768Z,7.30
2019-01-16T22:27:39.509Z,5.97
2019-01-16T22:30:21.587Z,5.53
2019-01-16T22:32:51.700Z,6.30
2019-01-16T22:35:36.488Z,6.60
2019-01-16T22:38:23.289Z,8.97
2019-01-16T22:41:12.598Z,7.57
2019-01-16T22:44:01.298Z,5.97
2019-01-16T22:46:47.966Z,7.10
2019-01-16T22:49:34.222Z,5.80
2019-01-16T22:52:16.658Z,6.50
2019-01-16T22:54:52.856Z,7.10
2019-01-16T22:57:29.239Z,6.37
2019-01-16T23:00:02.072Z,6.87
2019-01-16T23:02:44.697Z,8.07
2019-01-16T23:05:14.788Z,7.87
2019-01-16T23:07:57.394Z,7.90
2019-01-16T23:10:43.681Z,7.87
2019-01-16T23:13:23.244Z,8.70
2019-01-16T23:15:53.547Z,8.93
2019-01-16T23:18:35.591Z,8.50
2019-01-16T23:21:14.809Z,8.70
2019-01-16T23:23:50.994Z,7.93
2019-01-16T23:26:33.452Z,7.13
2019-01-16T23:29:10.080Z,7.90
2019-01-16T23:31:52.589Z,7.50
2019-01-16T23:34:24.220Z,8.20
2019-01-16T23:37:09.815Z,8.17
2019-01-16T23:39:54.795Z,8.47
2019-01-16T23:42:39.954Z,7.90
2019-01-16T23:45:27.657Z,8.90
2019-01-16T23:48:13.898Z,9.50
2019-01-16T23:50:47.234Z,8.47
2019-01-16T23:53:29.861Z,8.50
2019-01-16T23:56:02.790Z,8.40
2019-01-16T23:58:50.210Z,7.93
